createdAt,value
2024-05-09T00:00:39.250Z,87.06
2024-05-09T00:03:08.862Z,86.88
2024-05-09T00:05:37.091Z,87.46
2024-05-09T00:08:04.873Z,87.39
2024-05-09T00:10:36.575Z,87.12
2024-05-09T00:13:05.798Z,87.28
2024-05-09T00:15:33.613Z,87.49
2024-05-09T00:18:01.140Z,88.07
2024-05-09T00:20:36.231Z,87.69
2024-05-09T00:23:10.851Z,88.37
2024-05-09T00:25:38.249Z,88.32
2024-05-09T00:28:05.741Z,87.89
2024-05-09T00:30:35.690Z,87.96
2024-05-09T00:33:06.482Z,87.98
2024-05-09T00:35:34.850Z,87.89
2024-05-09T00:38:01.961Z,88.08
2024-05-09T00:40:40.624Z,87.83
2024-05-09T00:43:10.501Z,87.85
2024-05-09T00:45:37.642Z,87.80
2024-05-09T00:48:07.805Z,87.59
2024-05-09T00:50:38.899Z,87.60
2024-05-09T00:53:11.785Z,87.63
2024-05-09T00:55:40.197Z,87.31
2024-05-09T00:58:09.222Z,87.44
2024-05-09T01:00:39.795Z,87.05
2024-05-09T01:03:10.021Z,87.09
2024-05-09T01:05:39.771Z,86.66
2024-05-09T01:08:07.730Z,86.88
2024-05-09T01:10:36.209Z,86.63
2024-05-09T01:13:04.297Z,86.60
2024-05-09T01:15:31.452Z,86.78
2024-05-09T01:18:01.289Z,86.47
2024-05-09T01:20:39.062Z,86.71
2024-05-09T01:23:10.013Z,86.59
2024-05-09T01:25:37.213Z,86.74
2024-05-09T01:28:04.223Z,86.38
2024-05-09T01:30:35.409Z,86.48
2024-05-09T01:33:06.819Z,86.37
2024-05-09T01:35:35.449Z,86.38
2024-05-09T01:38:02.355Z,86.25
2024-05-09T01:40:36.815Z,86.16
2024-05-09T01:43:06.696Z,86.18
2024-05-09T01:45:33.650Z,85.96
2024-05-09T01:48:00.919Z,86.08
2024-05-09T01:50:37.484Z,86.10
2024-05-09T01:53:08.839Z,85.94
2024-05-09T01:55:35.781Z,85.76
2024-05-09T01:58:02.528Z,85.69
2024-05-09T02:00:38.161Z,85.59
2024-05-09T02:03:15.633Z,85.69
2024-05-09T02:05:45.726Z,85.76
2024-05-09T02:08:18.364Z,85.73
2024-05-09T02:10:47.593Z,85.49
2024-05-09T02:13:15.071Z,85.47
2024-05-09T02:15:42.080Z,85.59
2024-05-09T02:18:10.266Z,85.75
2024-05-09T02:20:41.614Z,85.63
2024-05-09T02:23:09.708Z,85.96
2024-05-09T02:25:36.664Z,85.76
2024-05-09T02:28:03.462Z,85.96
2024-05-09T02:30:38.749Z,85.68
2024-05-09T02:33:09.882Z,85.78
2024-05-09T02:35:38.647Z,85.90
2024-05-09T02:38:05.695Z,85.75
2024-05-09T02:40:37.611Z,85.98
2024-05-09T02:43:07.349Z,86.17
2024-05-09T02:45:34.487Z,86.14
2024-05-09T02:48:01.958Z,86.37
2024-05-09T02:50:34.751Z,86.35
2024-05-09T02:53:06.344Z,86.65
2024-05-09T02:55:33.336Z,86.41
2024-05-09T02:58:00.182Z,86.85
2024-05-09T03:00:35.208Z,86.91
2024-05-09T03:03:08.517Z,87.05
2024-05-09T03:05:36.870Z,86.79
2024-05-09T03:08:04.417Z,87.13
2024-05-09T03:10:36.078Z,87.10
2024-05-09T03:13:15.049Z,86.80
2024-05-09T03:15:43.685Z,86.90
2024-05-09T03:18:11.652Z,87.16
2024-05-09T03:20:39.372Z,87.90
2024-05-09T03:23:09.289Z,87.55
2024-05-09T03:25:37.195Z,86.99
2024-05-09T03:28:04.243Z,87.25
2024-05-09T03:30:39.714Z,87.50
2024-05-09T03:33:20.235Z,88.45
2024-05-09T03:35:48.846Z,88.56
2024-05-09T03:38:16.509Z,88.62
2024-05-09T03:40:48.708Z,87.98
2024-05-09T03:43:16.674Z,88.42
2024-05-09T03:45:43.871Z,87.72
2024-05-09T03:48:11.044Z,88.33
2024-05-09T03:50:38.394Z,87.99
2024-05-09T03:53:05.782Z,88.00
2024-05-09T03:55:32.614Z,88.01
2024-05-09T03:57:59.575Z,87.66
2024-05-09T04:00:35.020Z,87.64
2024-05-09T04:03:07.788Z,87.45
2024-05-09T04:05:38.032Z,87.35
2024-05-09T04:08:05.681Z,86.96
2024-05-09T04:10:34.256Z,86.66
2024-05-09T04:13:03.185Z,86.61
2024-05-09T04:15:30.534Z,86.21
2024-05-09T04:17:57.630Z,86.09
2024-05-09T04:20:33.999Z,85.71
2024-05-09T04:23:07.066Z,85.82
2024-05-09T04:25:34.841Z,85.23
2024-05-09T04:28:01.654Z,85.00
2024-05-09T04:30:37.119Z,84.89
2024-05-09T04:33:08.864Z,84.36
2024-05-09T04:35:37.855Z,84.28
2024-05-09T04:38:05.511Z,84.06
2024-05-09T04:40:35.699Z,83.58
2024-05-09T04:43:05.286Z,83.13
2024-05-09T04:45:32.325Z,82.18
2024-05-09T04:47:59.462Z,80.07
2024-05-09T04:50:35.391Z,79.64
2024-05-09T04:53:06.135Z,79.45
2024-05-09T04:55:33.435Z,79.94
2024-05-09T04:58:00.270Z,78.24
2024-05-09T05:00:34.907Z,77.13
2024-05-09T05:03:07.403Z,77.40
2024-05-09T05:05:40.278Z,76.70
2024-05-09T05:08:25.211Z,74.97
2024-05-09T05:10:52.090Z,75.04
2024-05-09T05:13:23.955Z,72.51
2024-05-09T05:15:56.557Z,72.22
2024-05-09T05:18:25.431Z,72.76
2024-05-09T05:20:52.447Z,72.72
2024-05-09T05:23:20.650Z,71.91
2024-05-09T05:25:49.012Z,71.53
2024-05-09T05:28:16.575Z,70.96
2024-05-09T05:30:43.407Z,70.49
2024-05-09T05:33:15.466Z,71.35
2024-05-09T05:35:42.748Z,72.33
2024-05-09T05:38:10.782Z,71.41
2024-05-09T05:40:39.138Z,71.32
2024-05-09T05:43:09.228Z,71.74
2024-05-09T05:45:36.584Z,71.68
2024-05-09T05:48:06.065Z,71.55
2024-05-09T05:50:36.719Z,70.00
2024-05-09T05:53:09.723Z,70.03
2024-05-09T05:55:39.186Z,68.34
2024-05-09T05:58:09.847Z,67.67
2024-05-09T06:00:39.289Z,67.13
2024-05-09T06:03:08.455Z,66.68
2024-05-09T06:05:37.152Z,62.78
2024-05-09T06:08:04.475Z,60.88
2024-05-09T06:10:37.975Z,62.54
2024-05-09T06:13:07.731Z,60.27
2024-05-09T06:15:34.589Z,58.97
2024-05-09T06:18:01.829Z,58.52
2024-05-09T06:20:35.619Z,59.27
2024-05-09T06:23:08.449Z,57.44
2024-05-09T06:25:36.284Z,53.95
2024-05-09T06:28:03.800Z,56.17
2024-05-09T06:30:38.552Z,57.82
2024-05-09T06:33:10.656Z,56.76
2024-05-09T06:35:39.225Z,57.52
2024-05-09T06:38:08.786Z,56.83
2024-05-09T06:40:38.645Z,57.27
2024-05-09T06:43:18.778Z,57.08
2024-05-09T06:45:52.768Z,56.65
2024-05-09T06:48:21.026Z,57.40
2024-05-09T06:50:48.581Z,57.09
2024-05-09T06:53:16.399Z,58.28
2024-05-09T06:55:43.387Z,57.51
2024-05-09T06:58:10.184Z,57.52
2024-05-09T07:00:39.995Z,57.66
2024-05-09T07:03:13.842Z,57.57
2024-05-09T07:05:43.184Z,56.46
2024-05-09T07:08:10.483Z,57.49
2024-05-09T07:10:37.669Z,56.79
2024-05-09T07:13:11.613Z,55.87
2024-05-09T07:15:38.840Z,56.44
2024-05-09T07:18:13.030Z,57.25
2024-05-09T07:20:40.812Z,57.63
2024-05-09T07:23:11.752Z,54.84
2024-05-09T07:25:39.811Z,55.23
2024-05-09T07:28:13.973Z,56.19
2024-05-09T07:30:41.047Z,54.26
2024-05-09T07:33:07.932Z,55.10
2024-05-09T07:35:35.018Z,54.13
2024-05-09T07:38:01.909Z,54.49
2024-05-09T07:40:35.151Z,53.92
2024-05-09T07:43:04.875Z,53.37
2024-05-09T07:45:48.146Z,53.76
2024-05-09T07:52:39.043Z,53.06
2024-05-09T07:53:47.254Z,53.54
2024-05-09T07:56:18.585Z,52.18
2024-05-09T07:58:46.447Z,53.33
2024-05-09T08:01:13.398Z,52.70
2024-05-09T08:03:40.434Z,53.19
2024-05-09T08:06:07.385Z,53.44
2024-05-09T08:08:34.123Z,53.12
2024-05-09T08:11:02.811Z,52.92
2024-05-09T08:13:29.726Z,52.03
2024-05-09T08:15:56.586Z,51.94
2024-05-09T08:18:23.679Z,50.82
2024-05-09T08:20:51.275Z,48.83
2024-05-09T08:23:18.156Z,51.28
2024-05-09T08:25:44.999Z,51.13
2024-05-09T08:28:12.957Z,50.13
2024-05-09T08:30:40.109Z,50.04
2024-05-09T08:33:07.857Z,50.15
2024-05-09T08:35:35.658Z,46.13
2024-05-09T08:38:04.504Z,49.64
2024-05-09T08:40:36.446Z,49.25
2024-05-09T08:43:10.489Z,47.86
2024-05-09T08:45:43.555Z,47.40
2024-05-09T08:48:12.649Z,47.99
2024-05-09T08:50:42.710Z,47.10
2024-05-09T08:53:10.075Z,48.10
2024-05-09T08:55:40.826Z,48.84
2024-05-09T08:58:14.349Z,46.87
2024-05-09T09:00:43.272Z,46.93
2024-05-09T09:03:15.336Z,44.35
2024-05-09T09:05:53.163Z,43.70
2024-05-09T09:08:20.458Z,44.05
2024-05-09T09:10:47.891Z,43.96
2024-05-09T09:13:14.846Z,44.52
2024-05-09T09:15:48.464Z,42.35
2024-05-09T09:18:16.785Z,43.22
2024-05-09T09:20:44.571Z,43.27
2024-05-09T09:23:11.484Z,42.18
2024-05-09T09:25:41.622Z,41.24
2024-05-09T09:28:09.406Z,41.05
2024-05-09T09:30:43.581Z,40.81
2024-05-09T09:33:10.901Z,40.61
2024-05-09T09:35:40.297Z,39.05
2024-05-09T09:38:10.449Z,40.46
2024-05-09T09:40:49.673Z,40.58
2024-05-09T09:43:22.284Z,40.62
2024-05-09T09:45:55.335Z,40.68
2024-05-09T09:48:23.255Z,39.84
2024-05-09T09:50:52.440Z,40.30
2024-05-09T09:53:19.784Z,41.27
2024-05-09T09:55:47.223Z,41.55
2024-05-09T09:58:17.460Z,40.66
2024-05-09T10:00:45.151Z,41.82
2024-05-09T10:03:12.147Z,40.34
2024-05-09T10:05:42.087Z,38.90
2024-05-09T10:08:12.334Z,39.03
2024-05-09T10:10:39.533Z,38.95
2024-05-09T10:13:07.745Z,39.97
2024-05-09T10:15:51.203Z,37.98
2024-05-09T10:18:27.149Z,39.26
2024-05-09T10:20:56.319Z,39.54
2024-05-09T10:23:27.950Z,38.33
2024-05-09T10:25:59.003Z,38.22
2024-05-09T10:28:30.012Z,38.69
2024-05-09T10:31:18.026Z,36.38
2024-05-09T10:33:52.532Z,36.29
2024-05-09T10:36:26.710Z,37.94
2024-05-09T10:38:54.787Z,37.99
2024-05-09T10:41:23.523Z,38.13
2024-05-09T10:43:51.453Z,36.31
2024-05-09T10:46:21.406Z,37.72
2024-05-09T10:48:48.878Z,38.34
2024-05-09T10:51:17.101Z,36.22
2024-05-09T10:53:45.633Z,37.80
2024-05-09T10:56:16.583Z,37.26
2024-05-09T10:58:43.656Z,36.79
2024-05-09T11:01:11.140Z,36.90
2024-05-09T11:03:39.262Z,37.39
2024-05-09T11:06:07.356Z,35.09
2024-05-09T11:08:36.282Z,37.47
2024-05-09T11:11:07.479Z,37.46
2024-05-09T11:13:37.082Z,38.42
2024-05-09T11:16:05.351Z,38.62
2024-05-09T11:18:36.523Z,38.21
2024-05-09T11:21:14.375Z,35.82
2024-05-09T11:23:41.677Z,35.98
2024-05-09T11:26:09.260Z,36.67
2024-05-09T11:28:36.168Z,36.71
2024-05-09T11:31:10.774Z,36.96
2024-05-09T11:33:43.736Z,36.18
2024-05-09T11:36:11.299Z,37.11
2024-05-09T11:38:38.128Z,36.65
2024-05-09T11:41:05.623Z,35.55
2024-05-09T11:43:33.342Z,36.53
2024-05-09T11:46:01.075Z,36.03
2024-05-09T11:48:28.253Z,35.84
2024-05-09T11:50:55.661Z,37.12
2024-05-09T11:53:22.633Z,37.23
2024-05-09T11:55:49.492Z,37.00
2024-05-09T11:58:18.217Z,33.20
2024-05-09T12:00:46.110Z,36.32
2024-05-09T12:03:13.225Z,35.56
2024-05-09T12:05:40.355Z,35.08
2024-05-09T12:08:07.534Z,35.04
2024-05-09T12:10:36.194Z,35.27
2024-05-09T12:21:02.549Z,34.26
2024-05-09T12:23:29.346Z,35.37
2024-05-09T12:25:56.135Z,34.92
2024-05-09T12:28:23.129Z,33.57
2024-05-09T12:30:50.859Z,34.63
2024-05-09T12:33:19.922Z,34.84
2024-05-09T12:35:49.250Z,34.35
2024-05-09T12:38:18.289Z,34.59
2024-05-09T12:40:45.108Z,35.10
2024-05-09T12:43:12.225Z,35.31
2024-05-09T12:45:39.895Z,34.89
2024-05-09T12:48:12.068Z,33.23
2024-05-09T12:50:40.276Z,33.36
2024-05-09T12:53:07.191Z,34.23
2024-05-09T12:55:40.960Z,34.63
2024-05-09T12:58:18.380Z,33.99
2024-05-09T13:00:45.951Z,33.49
2024-05-09T13:03:13.413Z,34.08
2024-05-09T13:05:46.511Z,34.82
2024-05-09T13:08:13.891Z,35.01
2024-05-09T13:10:41.085Z,33.10
2024-05-09T13:13:10.038Z,34.47
2024-05-09T13:15:37.384Z,34.29
2024-05-09T13:18:05.140Z,33.18
2024-05-09T13:20:35.129Z,33.76
2024-05-09T13:23:04.697Z,34.03
2024-05-09T13:25:32.087Z,34.19
2024-05-09T13:27:59.070Z,33.73
2024-05-09T13:30:33.936Z,32.86
2024-05-09T13:33:06.907Z,34.03
2024-05-09T13:35:35.519Z,33.29
2024-05-09T13:38:04.146Z,33.68
2024-05-09T13:40:34.563Z,34.04
2024-05-09T13:43:04.811Z,32.90
2024-05-09T13:45:32.187Z,33.39
2024-05-09T13:47:59.485Z,33.68
2024-05-09T13:50:33.598Z,33.29
2024-05-09T13:53:05.391Z,33.88
2024-05-09T13:55:33.287Z,33.93
2024-05-09T13:58:00.865Z,33.95
2024-05-09T14:00:41.344Z,34.06
2024-05-09T14:03:13.911Z,34.16
2024-05-09T14:05:41.259Z,33.82
2024-05-09T14:08:08.758Z,33.93
2024-05-09T14:10:35.965Z,34.49
2024-05-09T14:13:02.923Z,34.22
2024-05-09T14:15:29.939Z,33.23
2024-05-09T14:17:56.965Z,33.44
2024-05-09T14:20:30.719Z,33.48
2024-05-09T14:22:59.957Z,32.27
2024-05-09T14:25:35.111Z,33.88
2024-05-09T14:28:04.073Z,33.97
2024-05-09T14:30:36.661Z,34.08
2024-05-09T14:33:06.415Z,33.50
2024-05-09T14:35:34.077Z,34.04
2024-05-09T14:38:01.155Z,34.07
2024-05-09T14:40:38.779Z,33.84
2024-05-09T14:43:14.536Z,33.05
2024-05-09T14:45:42.634Z,32.77
2024-05-09T14:48:10.696Z,32.19
2024-05-09T14:50:39.715Z,32.44
2024-05-09T14:53:11.610Z,33.22
2024-05-09T14:55:40.686Z,32.79
2024-05-09T14:58:09.916Z,31.52
2024-05-09T15:00:46.229Z,32.56
2024-05-09T15:03:20.820Z,31.87
2024-05-09T15:05:49.047Z,32.60
2024-05-09T15:08:17.964Z,32.75
2024-05-09T15:10:45.300Z,31.40
2024-05-09T15:13:14.394Z,32.09
2024-05-09T15:15:43.290Z,32.27
2024-05-09T15:18:10.244Z,32.15
2024-05-09T15:20:37.865Z,31.67
2024-05-09T15:23:06.393Z,31.71
2024-05-09T15:25:34.453Z,31.42
2024-05-09T15:28:01.525Z,31.92
2024-05-09T15:30:31.743Z,30.85
2024-05-09T15:33:04.060Z,31.51
2024-05-09T15:35:31.434Z,31.60
2024-05-09T15:37:58.459Z,32.12
2024-05-09T15:40:31.630Z,32.62
2024-05-09T15:43:06.224Z,31.92
2024-05-09T15:45:34.363Z,32.22
2024-05-09T15:48:02.610Z,31.77
2024-05-09T15:50:36.989Z,31.99
2024-05-09T15:53:08.218Z,32.16
2024-05-09T15:55:35.938Z,31.90
2024-05-09T15:58:04.057Z,31.47
2024-05-09T16:03:01.380Z,31.77
2024-05-09T16:05:28.423Z,31.91
2024-05-09T16:07:55.438Z,31.72
2024-05-09T16:10:26.049Z,31.93
2024-05-09T16:12:59.190Z,31.96
2024-05-09T16:15:26.137Z,32.28
2024-05-09T16:17:53.096Z,32.03
2024-05-09T16:20:33.196Z,31.76
2024-05-09T16:23:05.550Z,31.63
2024-05-09T16:25:32.336Z,30.82
2024-05-09T16:27:59.322Z,31.32
2024-05-09T16:30:33.485Z,31.95
2024-05-09T16:33:03.049Z,31.68
2024-05-09T16:35:30.265Z,31.78
2024-05-09T16:37:57.413Z,32.45
2024-05-09T16:40:34.285Z,32.40
2024-05-09T16:43:06.277Z,32.87
2024-05-09T16:45:33.569Z,32.25
2024-05-09T16:48:01.550Z,32.38
2024-05-09T16:50:33.008Z,32.88
2024-05-09T16:53:02.536Z,32.84
2024-05-09T16:55:29.488Z,33.59
2024-05-09T16:57:57.514Z,33.50
2024-05-09T17:00:35.681Z,33.71
2024-05-09T17:03:08.782Z,31.91
2024-05-09T17:05:36.420Z,33.24
2024-05-09T17:08:04.036Z,33.56
2024-05-09T17:10:33.793Z,34.03
2024-05-09T17:13:07.357Z,33.78
2024-05-09T17:15:36.428Z,33.44
2024-05-09T17:18:05.231Z,33.20
2024-05-09T17:20:35.370Z,33.99
2024-05-09T17:23:05.950Z,35.12
2024-05-09T17:25:33.815Z,35.84
2024-05-09T17:28:06.908Z,36.29
2024-05-09T17:30:37.428Z,36.71
2024-05-09T17:33:07.656Z,36.97
2024-05-09T17:35:36.287Z,37.33
2024-05-09T17:38:04.373Z,37.70
2024-05-09T17:40:35.015Z,37.80
2024-05-09T17:43:05.055Z,38.58
2024-05-09T17:45:32.757Z,38.85
2024-05-09T17:48:00.108Z,39.15
2024-05-09T17:50:34.927Z,39.81
2024-05-09T17:53:04.125Z,39.60
2024-05-09T17:55:31.065Z,39.94
2024-05-09T17:57:58.236Z,39.93
2024-05-09T18:00:36.307Z,40.11
2024-05-09T18:03:07.040Z,39.93
2024-05-09T18:05:36.684Z,40.45
2024-05-09T18:08:04.417Z,40.44
2024-05-09T18:10:36.680Z,40.71
2024-05-09T18:13:06.899Z,40.86
2024-05-09T18:15:34.221Z,41.24
2024-05-09T18:18:02.281Z,41.30
2024-05-09T18:20:38.061Z,41.38
2024-05-09T18:23:11.015Z,41.93
2024-05-09T18:25:37.977Z,41.77
2024-05-09T18:28:05.739Z,41.91
2024-05-09T18:30:35.530Z,42.05
2024-05-09T18:33:11.213Z,41.89
2024-05-09T18:35:42.565Z,41.99
2024-05-09T18:38:09.947Z,42.28
2024-05-09T18:40:38.392Z,42.36
2024-05-09T18:43:08.300Z,42.19
2024-05-09T18:45:37.685Z,42.32
2024-05-09T18:48:06.329Z,42.01
2024-05-09T18:50:37.655Z,41.88
2024-05-09T18:53:06.755Z,42.10
2024-05-09T18:55:33.691Z,42.05
2024-05-09T18:58:00.662Z,42.76
2024-05-09T19:00:34.457Z,43.07
2024-05-09T19:03:06.247Z,42.89
2024-05-09T19:05:35.610Z,43.05
2024-05-09T19:08:03.401Z,43.00
2024-05-09T19:10:34.398Z,43.26
2024-05-09T19:13:06.785Z,43.34
2024-05-09T19:15:37.806Z,43.45
2024-05-09T19:18:05.247Z,43.53
2024-05-09T19:20:34.911Z,43.80
2024-05-09T19:23:03.379Z,43.88
2024-05-09T19:25:30.480Z,44.00
2024-05-09T19:27:57.436Z,44.03
2024-05-09T19:30:33.005Z,44.41
2024-05-09T19:33:06.241Z,44.76
2024-05-09T19:35:33.237Z,45.19
2024-05-09T19:38:00.241Z,45.02
2024-05-09T19:40:31.642Z,45.17
2024-05-09T19:43:01.750Z,45.37
2024-05-09T19:45:29.267Z,45.94
2024-05-09T19:47:56.519Z,46.24
2024-05-09T19:50:32.204Z,46.94
2024-05-09T19:53:07.123Z,47.47
2024-05-09T19:55:34.231Z,47.25
2024-05-09T19:58:04.778Z,47.00
2024-05-09T20:00:38.145Z,47.29
2024-05-09T20:03:07.593Z,47.25
2024-05-09T20:05:34.864Z,47.34
2024-05-09T20:08:01.825Z,47.14
2024-05-09T20:10:32.651Z,47.32
2024-05-09T20:13:01.876Z,47.36
2024-05-09T20:15:28.998Z,47.28
2024-05-09T20:17:55.970Z,47.39
2024-05-09T20:20:33.100Z,47.88
2024-05-09T20:23:06.294Z,47.48
2024-05-09T20:25:33.267Z,47.51
2024-05-09T20:28:00.255Z,47.45
2024-05-09T20:30:32.109Z,47.44
2024-05-09T20:33:03.939Z,47.53
2024-05-09T20:35:32.534Z,47.73
2024-05-09T20:38:01.276Z,48.28
2024-05-09T20:40:33.196Z,48.32
2024-05-09T20:43:03.934Z,48.28
2024-05-09T20:45:30.902Z,48.16
2024-05-09T20:47:58.083Z,48.37
2024-05-09T20:50:35.576Z,48.25
2024-05-09T20:53:16.185Z,48.48
2024-05-09T20:55:44.546Z,48.53
2024-05-09T20:58:12.337Z,49.46
2024-05-09T21:00:42.932Z,49.48
2024-05-09T21:03:13.310Z,49.43
2024-05-09T21:05:41.352Z,49.48
2024-05-09T21:08:08.609Z,50.22
2024-05-09T21:10:36.711Z,49.91
2024-05-09T21:13:04.736Z,49.89
2024-05-09T21:15:32.187Z,49.96
2024-05-09T21:17:59.222Z,50.12
2024-05-09T21:20:31.659Z,50.73
2024-05-09T21:23:00.176Z,51.67
2024-05-09T21:25:27.363Z,52.25
2024-05-09T21:27:54.337Z,53.12
2024-05-09T21:32:51.492Z,54.19
2024-05-09T21:35:18.621Z,55.45
2024-05-09T21:37:45.472Z,56.23
2024-05-09T21:40:16.994Z,56.41
2024-05-09T21:42:50.878Z,57.30
2024-05-09T21:45:17.688Z,56.17
2024-05-09T21:47:44.588Z,55.94
2024-05-09T21:50:22.061Z,56.73
2024-05-09T21:52:50.321Z,57.28
2024-05-09T21:55:17.108Z,57.62
2024-05-09T21:57:43.974Z,57.37
2024-05-09T22:00:24.850Z,56.90
2024-05-09T22:02:59.148Z,57.97
2024-05-09T22:05:32.217Z,57.20
2024-05-09T22:07:59.127Z,56.94
2024-05-09T22:10:31.141Z,57.57
2024-05-09T22:13:01.784Z,58.21
2024-05-09T22:15:28.799Z,58.45
2024-05-09T22:17:57.368Z,58.18
2024-05-09T22:20:33.522Z,58.60
2024-05-09T22:23:04.429Z,58.55
2024-05-09T22:25:32.266Z,58.61
2024-05-09T22:28:00.362Z,57.93
2024-05-09T22:30:34.586Z,58.02
2024-05-09T22:33:05.947Z,58.10
2024-05-09T22:35:33.138Z,58.59
2024-05-09T22:38:00.260Z,58.34
2024-05-09T22:40:38.661Z,58.59
2024-05-09T22:43:13.679Z,58.59
2024-05-09T22:45:41.010Z,57.68
2024-05-09T22:48:08.695Z,57.87
2024-05-09T22:50:35.807Z,58.09
2024-05-09T22:53:02.710Z,57.82
2024-05-09T22:55:30.171Z,57.45
2024-05-09T22:57:57.137Z,57.28
2024-05-09T23:02:53.738Z,57.06
2024-05-09T23:05:20.817Z,58.14
2024-05-09T23:07:47.695Z,58.25
2024-05-09T23:10:21.241Z,58.71
2024-05-09T23:12:55.129Z,58.82
2024-05-09T23:15:22.017Z,59.79
2024-05-09T23:17:48.980Z,60.17
2024-05-09T23:20:21.731Z,60.36
2024-05-09T23:22:55.914Z,60.82
2024-05-09T23:25:22.809Z,61.28
2024-05-09T23:27:49.703Z,61.04
2024-05-09T23:30:28.306Z,62.02
2024-05-09T23:33:01.370Z,62.10
2024-05-09T23:35:30.898Z,61.55
2024-05-09T23:37:57.719Z,61.91
2024-05-09T23:40:34.716Z,62.15
2024-05-09T23:43:05.471Z,62.82
2024-05-09T23:45:32.285Z,61.90
2024-05-09T23:47:59.121Z,62.39
2024-05-09T23:50:33.637Z,62.24
2024-05-09T23:53:03.485Z,62.73
2024-05-09T23:55:31.559Z,63.24
2024-05-09T23:57:58.668Z,63.11
